sensor_id;sensor_type;location;lat;lon;timestamp;P1;durP1;ratioP1;P2;durP2;ratioP2
40588;SDS011;26297;49.450;6.640;2023-02-28T00:02:21;2.22;;;0.73;;
40588;SDS011;26297;49.450;6.640;2023-02-28T00:05:38;1.38;;;0.60;;
40588;SDS011;26297;49.450;6.640;2023-02-28T00:08:46;0.68;;;0.68;;
40588;SDS011;26297;49.450;6.640;2023-02-28T00:11:51;1.45;;;0.50;;
40588;SDS011;26297;49.450;6.640;2023-02-28T00:14:56;0.82;;;0.40;;
40588;SDS011;26297;49.450;6.640;2023-02-28T00:18:05;1.60;;;0.70;;
40588;SDS011;26297;49.450;6.640;2023-02-28T00:21:11;0.82;;;0.50;;
40588;SDS011;26297;49.450;6.640;2023-02-28T00:24:18;0.73;;;0.70;;
40588;SDS011;26297;49.450;6.640;2023-02-28T00:27:23;0.52;;;0.47;;
40588;SDS011;26297;49.450;6.640;2023-02-28T00:30:36;1.02;;;0.40;;
40588;SDS011;26297;49.450;6.640;2023-02-28T00:33:40;0.60;;;0.60;;
40588;SDS011;26297;49.450;6.640;2023-02-28T00:36:53;0.85;;;0.65;;
40588;SDS011;26297;49.450;6.640;2023-02-28T00:40:05;0.55;;;0.50;;
40588;SDS011;26297;49.450;6.640;2023-02-28T00:43:11;0.68;;;0.47;;
40588;SDS011;26297;49.450;6.640;2023-02-28T00:46:21;0.80;;;0.70;;
40588;SDS011;26297;49.450;6.640;2023-02-28T00:52:25;0.82;;;0.77;;
40588;SDS011;26297;49.450;6.640;2023-02-28T00:55:28;0.90;;;0.57;;
40588;SDS011;26297;49.450;6.640;2023-02-28T00:58:32;0.55;;;0.55;;
40588;SDS011;26297;49.450;6.640;2023-02-28T01:01:36;0.50;;;0.50;;
40588;SDS011;26297;49.450;6.640;2023-02-28T01:04:39;1.52;;;0.60;;
40588;SDS011;26297;49.450;6.640;2023-02-28T01:07:49;0.43;;;0.43;;
40588;SDS011;26297;49.450;6.640;2023-02-28T01:18:00;0.70;;;0.50;;
40588;SDS011;26297;49.450;6.640;2023-02-28T01:21:13;0.60;;;0.50;;
40588;SDS011;26297;49.450;6.640;2023-02-28T01:24:32;0.80;;;0.45;;
40588;SDS011;26297;49.450;6.640;2023-02-28T01:28:13;3.38;;;0.77;;
40588;SDS011;26297;49.450;6.640;2023-02-28T01:31:27;0.63;;;0.55;;
40588;SDS011;26297;49.450;6.640;2023-02-28T01:35:31;0.73;;;0.50;;
40588;SDS011;26297;49.450;6.640;2023-02-28T02:08:35;2.15;;;0.50;;
40588;SDS011;26297;49.450;6.640;2023-02-28T02:55:52;1.70;;;1.40;;
40588;SDS011;26297;49.450;6.640;2023-02-28T02:59:18;1.52;;;1.00;;
40588;SDS011;26297;49.450;6.640;2023-02-28T03:02:24;2.58;;;1.70;;
40588;SDS011;26297;49.450;6.640;2023-02-28T03:05:41;3.58;;;1.73;;
40588;SDS011;26297;49.450;6.640;2023-02-28T03:08:51;2.47;;;1.67;;
40588;SDS011;26297;49.450;6.640;2023-02-28T03:12:09;2.60;;;1.45;;
40588;SDS011;26297;49.450;6.640;2023-02-28T03:15:23;1.17;;;1.08;;
40588;SDS011;26297;49.450;6.640;2023-02-28T03:19:36;1.27;;;1.00;;
40588;SDS011;26297;49.450;6.640;2023-02-28T03:25:38;2.45;;;1.13;;
40588;SDS011;26297;49.450;6.640;2023-02-28T03:28:55;1.55;;;1.20;;
40588;SDS011;26297;49.450;6.640;2023-02-28T03:35:31;1.75;;;1.15;;
40588;SDS011;26297;49.450;6.640;2023-02-28T03:38:45;1.60;;;1.50;;
40588;SDS011;26297;49.450;6.640;2023-02-28T03:41:58;1.55;;;1.10;;
40588;SDS011;26297;49.450;6.640;2023-02-28T03:45:05;2.20;;;2.00;;
40588;SDS011;26297;49.450;6.640;2023-02-28T03:51:24;2.53;;;1.52;;
40588;SDS011;26297;49.450;6.640;2023-02-28T03:54:32;1.90;;;1.80;;
40588;SDS011;26297;49.450;6.640;2023-02-28T04:01:12;1.65;;;1.20;;
40588;SDS011;26297;49.450;6.640;2023-02-28T04:04:19;1.67;;;1.30;;
40588;SDS011;26297;49.450;6.640;2023-02-28T04:07:29;1.98;;;1.38;;
40588;SDS011;26297;49.450;6.640;2023-02-28T04:10:33;1.20;;;1.10;;
40588;SDS011;26297;49.450;6.640;2023-02-28T04:13:49;2.30;;;1.77;;
40588;SDS011;26297;49.450;6.640;2023-02-28T04:16:53;2.08;;;1.25;;
40588;SDS011;26297;49.450;6.640;2023-02-28T04:19:59;1.88;;;1.52;;
40588;SDS011;26297;49.450;6.640;2023-02-28T04:23:03;1.00;;;1.00;;
40588;SDS011;26297;49.450;6.640;2023-02-28T04:26:07;1.90;;;1.15;;
40588;SDS011;26297;49.450;6.640;2023-02-28T04:29:19;2.80;;;1.23;;
40588;SDS011;26297;49.450;6.640;2023-02-28T04:32:24;1.88;;;1.45;;
40588;SDS011;26297;49.450;6.640;2023-02-28T04:35:28;1.30;;;1.20;;
40588;SDS011;26297;49.450;6.640;2023-02-28T04:38:37;2.20;;;2.00;;
40588;SDS011;26297;49.450;6.640;2023-02-28T04:41:42;1.50;;;1.40;;
40588;SDS011;26297;49.450;6.640;2023-02-28T04:44:45;3.28;;;1.20;;
40588;SDS011;26297;49.450;6.640;2023-02-28T04:47:49;1.23;;;1.13;;
40588;SDS011;26297;49.450;6.640;2023-02-28T04:50:53;0.93;;;0.90;;
40588;SDS011;26297;49.450;6.640;2023-02-28T04:54:03;1.27;;;1.17;;
40588;SDS011;26297;49.450;6.640;2023-02-28T04:57:06;1.75;;;1.50;;
40588;SDS011;26297;49.450;6.640;2023-02-28T05:00:10;1.90;;;1.63;;
40588;SDS011;26297;49.450;6.640;2023-02-28T05:03:16;1.98;;;1.50;;
40588;SDS011;26297;49.450;6.640;2023-02-28T05:06:19;3.28;;;2.05;;
40588;SDS011;26297;49.450;6.640;2023-02-28T05:09:24;1.80;;;1.58;;
40588;SDS011;26297;49.450;6.640;2023-02-28T05:12:29;1.77;;;1.65;;
40588;SDS011;26297;49.450;6.640;2023-02-28T05:15:33;1.63;;;1.52;;
40588;SDS011;26297;49.450;6.640;2023-02-28T05:18:38;2.33;;;1.80;;
40588;SDS011;26297;49.450;6.640;2023-02-28T05:21:54;1.70;;;1.60;;
40588;SDS011;26297;49.450;6.640;2023-02-28T05:24:58;2.17;;;1.70;;
40588;SDS011;26297;49.450;6.640;2023-02-28T05:28:01;2.25;;;2.05;;
40588;SDS011;26297;49.450;6.640;2023-02-28T05:31:05;1.58;;;1.48;;
40588;SDS011;26297;49.450;6.640;2023-02-28T05:34:09;1.50;;;1.33;;
40588;SDS011;26297;49.450;6.640;2023-02-28T05:37:15;1.60;;;1.50;;
40588;SDS011;26297;49.450;6.640;2023-02-28T05:40:19;1.60;;;1.50;;
40588;SDS011;26297;49.450;6.640;2023-02-28T05:43:23;1.98;;;1.40;;
40588;SDS011;26297;49.450;6.640;2023-02-28T05:46:27;2.20;;;2.00;;
40588;SDS011;26297;49.450;6.640;2023-02-28T05:49:30;2.33;;;2.00;;
40588;SDS011;26297;49.450;6.640;2023-02-28T05:52:34;1.52;;;1.42;;
40588;SDS011;26297;49.450;6.640;2023-02-28T05:55:37;1.83;;;1.30;;
40588;SDS011;26297;49.450;6.640;2023-02-28T05:58:41;1.50;;;1.40;;
40588;SDS011;26297;49.450;6.640;2023-02-28T06:01:45;1.70;;;1.60;;
40588;SDS011;26297;49.450;6.640;2023-02-28T06:05:16;1.40;;;1.30;;
40588;SDS011;26297;49.450;6.640;2023-02-28T06:08:20;2.05;;;1.90;;
40588;SDS011;26297;49.450;6.640;2023-02-28T06:11:27;1.70;;;1.30;;
40588;SDS011;26297;49.450;6.640;2023-02-28T06:14:33;1.60;;;1.50;;
40588;SDS011;26297;49.450;6.640;2023-02-28T06:17:37;1.55;;;1.45;;
40588;SDS011;26297;49.450;6.640;2023-02-28T06:20:56;2.75;;;1.88;;
40588;SDS011;26297;49.450;6.640;2023-02-28T06:24:02;1.42;;;1.30;;
40588;SDS011;26297;49.450;6.640;2023-02-28T06:27:11;2.22;;;1.98;;
40588;SDS011;26297;49.450;6.640;2023-02-28T06:30:14;2.13;;;1.50;;
40588;SDS011;26297;49.450;6.640;2023-02-28T06:33:23;2.17;;;1.45;;
40588;SDS011;26297;49.450;6.640;2023-02-28T06:36:36;1.63;;;1.48;;
40588;SDS011;26297;49.450;6.640;2023-02-28T06:39:40;1.40;;;1.30;;
40588;SDS011;26297;49.450;6.640;2023-02-28T06:42:50;1.40;;;1.30;;
40588;SDS011;26297;49.450;6.640;2023-02-28T06:45:54;1.40;;;1.23;;
40588;SDS011;26297;49.450;6.640;2023-02-28T06:49:10;2.47;;;1.48;;
40588;SDS011;26297;49.450;6.640;2023-02-28T06:52:19;1.50;;;1.40;;
40588;SDS011;26297;49.450;6.640;2023-02-28T06:55:22;1.20;;;1.10;;
40588;SDS011;26297;49.450;6.640;2023-02-28T06:58:29;1.08;;;1.08;;
40588;SDS011;26297;49.450;6.640;2023-02-28T07:01:39;1.45;;;1.35;;
40588;SDS011;26297;49.450;6.640;2023-02-28T07:04:43;2.05;;;1.45;;
40588;SDS011;26297;49.450;6.640;2023-02-28T07:07:47;2.35;;;1.50;;
40588;SDS011;26297;49.450;6.640;2023-02-28T07:10:51;2.10;;;1.40;;
40588;SDS011;26297;49.450;6.640;2023-02-28T07:13:56;1.40;;;1.30;;
40588;SDS011;26297;49.450;6.640;2023-02-28T07:17:00;2.30;;;1.73;;
40588;SDS011;26297;49.450;6.640;2023-02-28T07:20:09;5.90;;;3.92;;
40588;SDS011;26297;49.450;6.640;2023-02-28T07:23:13;1.40;;;1.30;;
40588;SDS011;26297;49.450;6.640;2023-02-28T07:26:20;1.85;;;1.70;;
40588;SDS011;26297;49.450;6.640;2023-02-28T07:29:23;5.35;;;3.10;;
40588;SDS011;26297;49.450;6.640;2023-02-28T07:32:27;1.75;;;1.65;;
40588;SDS011;26297;49.450;6.640;2023-02-28T07:35:30;3.17;;;1.70;;
40588;SDS011;26297;49.450;6.640;2023-02-28T07:38:35;1.80;;;1.65;;
40588;SDS011;26297;49.450;6.640;2023-02-28T07:41:40;1.98;;;1.67;;
40588;SDS011;26297;49.450;6.640;2023-02-28T07:44:46;2.88;;;2.00;;
40588;SDS011;26297;49.450;6.640;2023-02-28T07:47:49;2.80;;;2.25;;
40588;SDS011;26297;49.450;6.640;2023-02-28T07:50:56;2.03;;;1.75;;
40588;SDS011;26297;49.450;6.640;2023-02-28T07:54:03;2.03;;;1.80;;
40588;SDS011;26297;49.450;6.640;2023-02-28T07:57:09;3.00;;;1.90;;
40588;SDS011;26297;49.450;6.640;2023-02-28T08:00:13;1.83;;;1.67;;
40588;SDS011;26297;49.450;6.640;2023-02-28T08:03:20;2.03;;;1.35;;
40588;SDS011;26297;49.450;6.640;2023-02-28T08:06:27;3.13;;;1.60;;
40588;SDS011;26297;49.450;6.640;2023-02-28T08:09:30;5.00;;;1.75;;
40588;SDS011;26297;49.450;6.640;2023-02-28T08:12:34;1.67;;;1.45;;
40588;SDS011;26297;49.450;6.640;2023-02-28T08:33:49;2.10;;;1.90;;
40588;SDS011;26297;49.450;6.640;2023-02-28T08:36:54;1.83;;;1.73;;
40588;SDS011;26297;49.450;6.640;2023-02-28T08:39:58;2.00;;;1.80;;
40588;SDS011;26297;49.450;6.640;2023-02-28T08:43:02;2.00;;;1.70;;
40588;SDS011;26297;49.450;6.640;2023-02-28T08:46:05;2.95;;;1.90;;
40588;SDS011;26297;49.450;6.640;2023-02-28T08:57:36;2.80;;;1.53;;
40588;SDS011;26297;49.450;6.640;2023-02-28T09:08:39;3.08;;;1.75;;
40588;SDS011;26297;49.450;6.640;2023-02-28T09:11:46;1.58;;;1.35;;
40588;SDS011;26297;49.450;6.640;2023-02-28T09:14:49;2.33;;;1.67;;
40588;SDS011;26297;49.450;6.640;2023-02-28T09:17:53;2.45;;;1.50;;
40588;SDS011;26297;49.450;6.640;2023-02-28T09:20:57;1.50;;;1.40;;
40588;SDS011;26297;49.450;6.640;2023-02-28T09:24:03;1.55;;;1.45;;
40588;SDS011;26297;49.450;6.640;2023-02-28T09:27:10;2.95;;;2.03;;
40588;SDS011;26297;49.450;6.640;2023-02-28T09:30:14;2.60;;;1.90;;
40588;SDS011;26297;49.450;6.640;2023-02-28T09:33:18;4.53;;;2.00;;
40588;SDS011;26297;49.450;6.640;2023-02-28T09:36:26;2.13;;;1.23;;
40588;SDS011;26297;49.450;6.640;2023-02-28T09:39:35;2.25;;;1.65;;
40588;SDS011;26297;49.450;6.640;2023-02-28T09:50:49;3.25;;;2.03;;
40588;SDS011;26297;49.450;6.640;2023-02-28T10:30:15;2.67;;;2.00;;
40588;SDS011;26297;49.450;6.640;2023-02-28T10:33:23;2.15;;;1.85;;
40588;SDS011;26297;49.450;6.640;2023-02-28T10:36:37;2.47;;;2.28;;
40588;SDS011;26297;49.450;6.640;2023-02-28T10:39:42;2.92;;;2.42;;
40588;SDS011;26297;49.450;6.640;2023-02-28T10:47:03;2.28;;;1.98;;
40588;SDS011;26297;49.450;6.640;2023-02-28T11:02:48;3.33;;;2.85;;
40588;SDS011;26297;49.450;6.640;2023-02-28T11:05:52;3.85;;;2.90;;
40588;SDS011;26297;49.450;6.640;2023-02-28T11:08:56;3.47;;;2.60;;
40588;SDS011;26297;49.450;6.640;2023-02-28T11:12:04;3.90;;;2.83;;
40588;SDS011;26297;49.450;6.640;2023-02-28T11:15:56;3.60;;;2.67;;
40588;SDS011;26297;49.450;6.640;2023-02-28T11:47:42;3.23;;;2.60;;
40588;SDS011;26297;49.450;6.640;2023-02-28T11:57:56;3.17;;;2.47;;
40588;SDS011;26297;49.450;6.640;2023-02-28T12:11:57;4.68;;;2.70;;
40588;SDS011;26297;49.450;6.640;2023-02-28T12:15:24;2.75;;;2.20;;
40588;SDS011;26297;49.450;6.640;2023-02-28T12:22:25;3.28;;;2.40;;
40588;SDS011;26297;49.450;6.640;2023-02-28T12:25:38;3.10;;;2.80;;
40588;SDS011;26297;49.450;6.640;2023-02-28T12:29:23;4.65;;;2.67;;
40588;SDS011;26297;49.450;6.640;2023-02-28T12:32:50;2.42;;;2.22;;
40588;SDS011;26297;49.450;6.640;2023-02-28T12:36:19;3.45;;;2.15;;
40588;SDS011;26297;49.450;6.640;2023-02-28T15:15:42;4.20;;;3.20;;
40588;SDS011;26297;49.450;6.640;2023-02-28T15:33:28;5.15;;;2.67;;
40588;SDS011;26297;49.450;6.640;2023-02-28T16:28:53;5.60;;;3.30;;
40588;SDS011;26297;49.450;6.640;2023-02-28T16:32:14;4.00;;;3.30;;
40588;SDS011;26297;49.450;6.640;2023-02-28T16:35:26;3.25;;;2.83;;
40588;SDS011;26297;49.450;6.640;2023-02-28T17:01:55;4.77;;;3.57;;
40588;SDS011;26297;49.450;6.640;2023-02-28T17:28:57;3.40;;;2.57;;
40588;SDS011;26297;49.450;6.640;2023-02-28T17:53:14;4.45;;;3.00;;
40588;SDS011;26297;49.450;6.640;2023-02-28T19:36:37;4.07;;;3.42;;
40588;SDS011;26297;49.450;6.640;2023-02-28T19:39:59;4.35;;;3.30;;
40588;SDS011;26297;49.450;6.640;2023-02-28T19:43:19;3.88;;;3.47;;
40588;SDS011;26297;49.450;6.640;2023-02-28T19:46:45;5.82;;;3.90;;
40588;SDS011;26297;49.450;6.640;2023-02-28T19:50:00;3.92;;;3.00;;
40588;SDS011;26297;49.450;6.640;2023-02-28T19:53:24;4.45;;;3.60;;
40588;SDS011;26297;49.450;6.640;2023-02-28T19:56:36;3.97;;;3.28;;
40588;SDS011;26297;49.450;6.640;2023-02-28T20:00:03;4.07;;;3.45;;
40588;SDS011;26297;49.450;6.640;2023-02-28T20:03:36;4.13;;;3.03;;
40588;SDS011;26297;49.450;6.640;2023-02-28T20:23:46;6.53;;;4.07;;
40588;SDS011;26297;49.450;6.640;2023-02-28T20:35:13;5.95;;;3.70;;
40588;SDS011;26297;49.450;6.640;2023-02-28T21:13:53;7.97;;;4.20;;
40588;SDS011;26297;49.450;6.640;2023-02-28T22:52:43;3.83;;;2.93;;
40588;SDS011;26297;49.450;6.640;2023-02-28T22:56:29;4.13;;;2.83;;
40588;SDS011;26297;49.450;6.640;2023-02-28T23:00:32;4.10;;;3.15;;
40588;SDS011;26297;49.450;6.640;2023-02-28T23:03:40;6.28;;;3.20;;
40588;SDS011;26297;49.450;6.640;2023-02-28T23:06:46;3.60;;;3.15;;
40588;SDS011;26297;49.450;6.640;2023-02-28T23:10:09;5.25;;;3.60;;
40588;SDS011;26297;49.450;6.640;2023-02-28T23:13:24;4.85;;;3.45;;
40588;SDS011;26297;49.450;6.640;2023-02-28T23:16:38;4.57;;;3.45;;
40588;SDS011;26297;49.450;6.640;2023-02-28T23:19:56;3.78;;;3.08;;
40588;SDS011;26297;49.450;6.640;2023-02-28T23:23:22;4.65;;;3.03;;
40588;SDS011;26297;49.450;6.640;2023-02-28T23:26:38;5.40;;;3.20;;
40588;SDS011;26297;49.450;6.640;2023-02-28T23:29:46;5.50;;;3.40;;
40588;SDS011;26297;49.450;6.640;2023-02-28T23:32:49;5.43;;;3.70;;
40588;SDS011;26297;49.450;6.640;2023-02-28T23:35:53;4.85;;;4.00;;
40588;SDS011;26297;49.450;6.640;2023-02-28T23:39:14;5.20;;;4.03;;
40588;SDS011;26297;49.450;6.640;2023-02-28T23:45:26;4.63;;;3.63;;
40588;SDS011;26297;49.450;6.640;2023-02-28T23:48:31;5.57;;;3.40;;
40588;SDS011;26297;49.450;6.640;2023-02-28T23:51:41;5.82;;;2.97;;
40588;SDS011;26297;49.450;6.640;2023-02-28T23:54:45;3.17;;;2.85;;
40588;SDS011;26297;49.450;6.640;2023-02-28T23:57:57;4.80;;;3.28;;
